createdAt,value
2018-11-06T00:00:04.731Z,59.00
2018-11-06T00:02:32.557Z,59.00
2018-11-06T00:05:05.782Z,59.00
2018-11-06T00:07:33.600Z,59.00
2018-11-06T00:10:01.427Z,59.00
2018-11-06T00:12:29.249Z,59.00
2018-11-06T00:14:58.749Z,59.30
2018-11-06T00:17:26.578Z,59.20
2018-11-06T00:19:54.404Z,59.00
2018-11-06T00:22:22.590Z,59.10
2018-11-06T00:24:50.519Z,59.00
2018-11-06T00:27:18.337Z,59.00
2018-11-06T00:29:46.163Z,59.10
2018-11-06T00:32:16.088Z,59.20
2018-11-06T00:34:45.646Z,59.10
2018-11-06T00:37:15.736Z,59.60
2018-11-06T00:39:45.742Z,59.10
2018-11-06T00:42:14.315Z,59.00
2018-11-06T00:44:42.155Z,59.00
2018-11-06T00:47:11.131Z,58.60
2018-11-06T00:49:39.977Z,58.70
2018-11-06T00:52:07.953Z,58.70
2018-11-06T00:54:38.150Z,58.70
2018-11-06T00:57:06.848Z,58.70
2018-11-06T00:59:34.658Z,59.20
2018-11-06T01:02:02.636Z,58.50
2018-11-06T01:04:30.466Z,58.50
2018-11-06T01:06:58.288Z,58.50
2018-11-06T01:09:26.120Z,58.50
2018-11-06T01:11:53.937Z,58.30
2018-11-06T01:14:21.752Z,58.40
2018-11-06T01:16:50.334Z,58.50
2018-11-06T01:19:18.159Z,58.40
2018-11-06T01:21:45.977Z,58.50
2018-11-06T01:24:15.628Z,58.50
2018-11-06T01:26:44.468Z,58.50
2018-11-06T01:29:13.211Z,58.50
2018-11-06T01:31:41.048Z,58.60
2018-11-06T01:34:10.093Z,58.60
2018-11-06T01:36:37.908Z,58.70
2018-11-06T01:39:06.855Z,58.70
2018-11-06T01:41:34.678Z,58.70
2018-11-06T01:44:03.459Z,58.70
2018-11-06T01:46:32.237Z,58.60
2018-11-06T01:49:00.164Z,58.70
2018-11-06T01:51:27.972Z,58.60
2018-11-06T01:53:55.789Z,58.60
2018-11-06T01:56:24.528Z,58.70
2018-11-06T01:58:52.397Z,58.60
2018-11-06T02:01:22.235Z,58.60
2018-11-06T02:03:50.935Z,58.80
2018-11-06T02:06:19.766Z,58.80
2018-11-06T02:08:49.854Z,58.70
2018-11-06T02:11:17.697Z,58.60
2018-11-06T02:13:47.203Z,58.70
2018-11-06T02:16:15.996Z,58.70
2018-11-06T02:18:44.892Z,58.60
2018-11-06T02:21:14.469Z,58.60
2018-11-06T02:23:44.870Z,58.70
2018-11-06T02:26:14.232Z,58.80
2018-11-06T02:28:43.553Z,58.70
2018-11-06T02:31:12.262Z,58.70
2018-11-06T02:33:41.085Z,58.80
2018-11-06T02:36:08.978Z,58.60
2018-11-06T02:38:36.803Z,58.60
2018-11-06T02:41:04.696Z,59.00
2018-11-06T02:43:37.346Z,58.70
2018-11-06T02:46:06.064Z,58.80
2018-11-06T02:48:33.973Z,58.70
2018-11-06T02:51:05.809Z,58.80
2018-11-06T02:53:34.592Z,58.90
2018-11-06T02:56:02.496Z,59.00
2018-11-06T02:58:31.378Z,59.10
2018-11-06T03:00:59.201Z,58.80
2018-11-06T03:03:27.122Z,59.40
2018-11-06T03:05:54.941Z,58.80
2018-11-06T03:08:24.863Z,58.90
2018-11-06T03:10:52.735Z,59.00
2018-11-06T03:13:21.559Z,59.00
2018-11-06T03:15:50.427Z,59.00
2018-11-06T03:18:20.548Z,58.90
2018-11-06T03:20:48.408Z,59.00
2018-11-06T03:23:16.353Z,59.00
2018-11-06T03:25:45.581Z,59.00
2018-11-06T03:28:14.516Z,59.20
2018-11-06T03:30:42.340Z,58.80
2018-11-06T03:33:11.196Z,58.90
2018-11-06T03:35:39.933Z,58.90
2018-11-06T03:38:07.946Z,58.90
2018-11-06T03:40:35.775Z,59.00
2018-11-06T03:43:04.469Z,59.00
2018-11-06T03:45:32.294Z,59.10
2018-11-06T03:48:00.122Z,59.10
2018-11-06T03:50:27.954Z,59.70
2018-11-06T03:52:55.784Z,59.20
2018-11-06T03:55:23.613Z,59.10
2018-11-06T03:57:51.755Z,59.60
2018-11-06T04:00:19.577Z,58.90
2018-11-06T04:02:47.395Z,58.80
2018-11-06T04:05:20.844Z,59.10
2018-11-06T04:07:49.590Z,59.10
2018-11-06T04:10:17.935Z,59.10
2018-11-06T04:12:45.876Z,59.00
2018-11-06T04:15:14.962Z,59.00
2018-11-06T04:17:46.161Z,58.70
2018-11-06T04:20:14.823Z,58.80
2018-11-06T04:22:42.786Z,58.60
2018-11-06T04:25:11.509Z,58.70
2018-11-06T04:27:40.251Z,58.70
2018-11-06T04:30:10.001Z,58.80
2018-11-06T04:32:39.225Z,58.90
2018-11-06T04:35:08.287Z,59.00
2018-11-06T04:37:37.452Z,58.90
2018-11-06T04:40:05.910Z,59.10
2018-11-06T04:42:36.730Z,59.30
2018-11-06T04:45:05.822Z,59.30
2018-11-06T04:47:34.741Z,59.20
2018-11-06T04:50:02.597Z,58.90
2018-11-06T04:52:30.426Z,59.10
2018-11-06T04:54:59.175Z,59.10
2018-11-06T04:57:27.034Z,59.00
2018-11-06T04:59:55.080Z,59.00
2018-11-06T05:02:23.995Z,59.00
2018-11-06T05:04:54.321Z,59.10
2018-11-06T05:07:23.040Z,59.00
2018-11-06T05:09:51.782Z,59.00
2018-11-06T05:12:19.598Z,59.10
2018-11-06T05:14:48.634Z,59.10
2018-11-06T05:17:16.471Z,59.10
2018-11-06T05:19:46.452Z,59.00
2018-11-06T05:22:16.383Z,58.70
2018-11-06T05:24:44.814Z,58.70
2018-11-06T05:27:12.655Z,58.70
2018-11-06T05:29:40.410Z,58.70
2018-11-06T05:32:08.220Z,58.70
2018-11-06T05:34:36.118Z,58.60
2018-11-06T05:37:03.875Z,58.70
2018-11-06T05:39:31.717Z,58.60
2018-11-06T05:42:06.238Z,58.60
2018-11-06T05:44:34.061Z,58.50
2018-11-06T05:47:01.881Z,58.40
2018-11-06T05:49:29.795Z,58.50
2018-11-06T05:51:57.615Z,58.50
2018-11-06T05:54:25.438Z,58.60
2018-11-06T05:56:53.293Z,58.50
2018-11-06T05:59:21.118Z,58.50
2018-11-06T06:01:48.983Z,58.70
2018-11-06T06:04:16.812Z,58.60
2018-11-06T06:06:45.658Z,58.60
2018-11-06T06:09:14.413Z,58.60
2018-11-06T06:11:43.316Z,58.50
2018-11-06T06:14:11.095Z,58.60
2018-11-06T06:16:38.940Z,58.60
2018-11-06T06:19:06.871Z,58.40
2018-11-06T06:21:35.539Z,58.40
2018-11-06T06:24:03.546Z,58.70
2018-11-06T06:26:31.367Z,58.60
2018-11-06T06:28:59.193Z,58.50
2018-11-06T06:31:27.021Z,58.40
2018-11-06T06:33:59.525Z,58.40
2018-11-06T06:36:28.214Z,58.40
2018-11-06T06:38:56.099Z,58.50
2018-11-06T06:41:23.994Z,58.50
2018-11-06T06:43:52.702Z,58.70
2018-11-06T06:46:20.981Z,58.60
2018-11-06T06:48:48.754Z,58.70
2018-11-06T06:51:17.536Z,58.70
2018-11-06T06:53:46.772Z,58.80
2018-11-06T06:56:15.797Z,58.80
2018-11-06T06:58:44.878Z,58.80
2018-11-06T07:01:14.886Z,58.70
2018-11-06T07:03:44.511Z,58.90
2018-11-06T07:06:14.049Z,58.90
2018-11-06T07:08:41.915Z,58.90
2018-11-06T07:11:09.733Z,58.80
2018-11-06T07:13:37.758Z,58.80
2018-11-06T07:16:06.283Z,58.80
2018-11-06T07:18:35.164Z,58.80
2018-11-06T07:21:04.032Z,58.70
2018-11-06T07:23:32.780Z,58.70
2018-11-06T07:26:01.635Z,58.70
2018-11-06T07:28:30.340Z,58.90
2018-11-06T07:30:59.027Z,59.00
2018-11-06T07:33:27.824Z,58.80
2018-11-06T07:35:55.796Z,58.90
2018-11-06T07:38:23.558Z,58.80
2018-11-06T07:40:51.436Z,59.00
2018-11-06T07:43:20.141Z,59.00
2018-11-06T07:45:48.863Z,58.90
2018-11-06T07:48:17.826Z,59.50
2018-11-06T07:50:46.709Z,59.00
2018-11-06T07:53:15.296Z,59.00
2018-11-06T07:55:45.433Z,59.10
2018-11-06T07:58:15.140Z,59.00
2018-11-06T08:00:44.976Z,59.00
2018-11-06T08:03:14.187Z,59.00
2018-11-06T08:05:43.215Z,59.00
2018-11-06T08:08:11.075Z,59.10
2018-11-06T08:10:38.942Z,59.10
2018-11-06T08:13:06.772Z,59.20
2018-11-06T08:15:35.654Z,59.20
2018-11-06T08:18:03.532Z,59.20
2018-11-06T08:20:31.766Z,59.40
2018-11-06T08:22:59.550Z,59.30
2018-11-06T08:25:29.665Z,59.30
2018-11-06T08:27:57.664Z,59.20
2018-11-06T08:30:25.585Z,59.10
2018-11-06T08:32:55.075Z,59.20
2018-11-06T08:35:23.304Z,59.20
2018-11-06T08:37:52.017Z,59.20
2018-11-06T08:40:20.476Z,59.40
2018-11-06T08:42:48.612Z,59.50
2018-11-06T08:45:16.993Z,59.50
2018-11-06T08:47:46.990Z,59.30
2018-11-06T08:50:17.202Z,59.30
2018-11-06T08:52:45.554Z,59.20
2018-11-06T08:55:14.853Z,59.10
2018-11-06T08:57:44.672Z,59.20
2018-11-06T09:00:15.803Z,59.20
2018-11-06T09:02:46.511Z,59.50
2018-11-06T09:05:15.331Z,58.90
2018-11-06T09:07:44.894Z,59.70
2018-11-06T09:10:15.014Z,59.70
2018-11-06T09:12:44.175Z,59.90
2018-11-06T09:15:14.907Z,59.80
2018-11-06T09:17:42.742Z,59.80
2018-11-06T09:20:13.798Z,59.80
2018-11-06T09:22:42.478Z,59.70
2018-11-06T09:25:12.479Z,59.90
2018-11-06T09:27:42.444Z,59.70
2018-11-06T09:30:13.322Z,59.50
2018-11-06T09:32:41.177Z,59.50
2018-11-06T09:35:10.608Z,59.50
2018-11-06T09:37:41.072Z,59.60
2018-11-06T09:40:09.841Z,59.50
2018-11-06T09:42:38.826Z,59.50
2018-11-06T09:45:08.244Z,59.50
2018-11-06T09:47:37.384Z,59.70
2018-11-06T09:50:07.285Z,59.70
2018-11-06T09:52:36.097Z,59.60
2018-11-06T09:55:04.075Z,59.60
2018-11-06T09:57:32.626Z,59.50
2018-11-06T10:00:00.573Z,60.20
2018-11-06T10:02:29.804Z,59.60
2018-11-06T10:04:58.589Z,59.70
2018-11-06T10:07:26.623Z,59.60
2018-11-06T10:09:55.907Z,59.70
2018-11-06T10:12:23.775Z,59.70
2018-11-06T10:14:52.532Z,59.70
2018-11-06T10:17:21.287Z,59.90
2018-11-06T10:19:50.612Z,59.70
2018-11-06T10:22:19.501Z,59.80
2018-11-06T10:24:48.399Z,59.80
2018-11-06T10:27:17.112Z,59.80
2018-11-06T10:29:47.469Z,59.70
2018-11-06T10:32:16.701Z,59.90
2018-11-06T10:34:45.465Z,59.80
2018-11-06T10:37:14.398Z,59.90
2018-11-06T10:39:42.259Z,60.10
2018-11-06T10:42:10.122Z,60.10
2018-11-06T10:44:37.999Z,60.20
2018-11-06T10:47:06.082Z,60.10
2018-11-06T10:49:33.915Z,60.10
2018-11-06T10:52:01.736Z,60.20
2018-11-06T10:54:29.557Z,60.10
2018-11-06T10:56:57.403Z,60.20
2018-11-06T10:59:25.224Z,60.30
2018-11-06T11:02:59.081Z,60.40
2018-11-06T11:05:29.146Z,60.50
2018-11-06T11:07:56.967Z,60.70
2018-11-06T11:10:25.844Z,60.80
2018-11-06T11:12:54.701Z,60.80
2018-11-06T11:15:22.523Z,60.70
2018-11-06T11:17:50.341Z,60.70
2018-11-06T11:20:19.288Z,60.50
2018-11-06T11:22:49.716Z,60.50
2018-11-06T11:25:18.584Z,60.50
2018-11-06T11:27:46.927Z,60.20
2018-11-06T11:30:16.724Z,60.20
2018-11-06T11:32:47.527Z,60.10
2018-11-06T11:35:16.168Z,60.00
2018-11-06T11:37:46.020Z,59.80
2018-11-06T11:40:14.919Z,59.80
2018-11-06T11:42:44.152Z,59.60
2018-11-06T11:45:15.231Z,59.60
2018-11-06T11:47:43.755Z,59.60
2018-11-06T11:50:14.782Z,59.60
2018-11-06T11:52:44.934Z,59.50
2018-11-06T11:55:14.827Z,59.60
2018-11-06T11:57:44.613Z,59.70
2018-11-06T12:00:15.065Z,59.80
2018-11-06T12:02:44.452Z,59.90
2018-11-06T12:05:14.283Z,59.80
2018-11-06T12:07:43.558Z,60.00
2018-11-06T12:10:14.038Z,60.00
2018-11-06T12:12:42.041Z,59.90
2018-11-06T12:15:11.728Z,60.20
2018-11-06T12:17:41.145Z,60.20
2018-11-06T12:20:10.047Z,60.00
2018-11-06T12:22:38.238Z,60.00
2018-11-06T12:25:06.271Z,60.00
2018-11-06T12:27:46.369Z,60.00
2018-11-06T12:30:20.490Z,60.10
2018-11-06T12:32:48.997Z,60.10
2018-11-06T12:35:33.656Z,60.10
2018-11-06T12:38:02.324Z,60.10
2018-11-06T12:40:32.077Z,60.20
2018-11-06T12:42:59.976Z,60.30
2018-11-06T12:45:27.795Z,60.30
2018-11-06T12:47:57.463Z,60.30
2018-11-06T12:50:25.420Z,60.40
2018-11-06T12:52:53.211Z,60.40
2018-11-06T12:55:21.019Z,60.60
2018-11-06T12:57:48.831Z,60.80
2018-11-06T13:00:19.109Z,60.60
2018-11-06T13:02:46.977Z,60.50
2018-11-06T13:05:15.774Z,60.60
2018-11-06T13:07:45.041Z,60.50
2018-11-06T13:10:14.682Z,60.60
2018-11-06T13:12:44.335Z,60.90
2018-11-06T13:15:15.640Z,60.70
2018-11-06T13:17:44.102Z,61.00
2018-11-06T13:20:16.302Z,61.10
2018-11-06T13:22:45.255Z,61.30
2018-11-06T13:25:14.012Z,61.30
2018-11-06T13:27:42.293Z,61.10
2018-11-06T13:30:13.970Z,61.20
2018-11-06T13:32:44.084Z,61.70
2018-11-06T13:35:13.959Z,61.10
2018-11-06T13:37:44.050Z,61.30
2018-11-06T13:40:14.430Z,61.40
2018-11-06T13:42:44.024Z,61.30
2018-11-06T13:45:18.555Z,61.30
2018-11-06T13:47:46.285Z,61.10
2018-11-06T13:50:14.960Z,61.50
2018-11-06T13:52:43.697Z,61.40
2018-11-06T13:55:14.300Z,61.60
2018-11-06T13:57:43.517Z,61.40
2018-11-06T14:00:14.144Z,61.20
2018-11-06T14:02:43.198Z,61.30
2018-11-06T14:05:12.471Z,61.40
2018-11-06T14:07:40.388Z,61.10
2018-11-06T14:10:09.576Z,61.00
2018-11-06T14:12:38.537Z,61.00
2018-11-06T14:15:07.400Z,60.80
2018-11-06T14:17:36.423Z,60.70
2018-11-06T14:20:06.305Z,60.70
2018-11-06T14:22:34.203Z,60.60
2018-11-06T14:25:02.040Z,60.70
2018-11-06T14:27:31.559Z,60.70
2018-11-06T14:29:59.442Z,60.70
2018-11-06T14:32:27.222Z,60.60
2018-11-06T14:34:55.067Z,60.80
2018-11-06T14:37:23.294Z,60.70
2018-11-06T14:39:51.238Z,60.90
2018-11-06T14:42:19.111Z,61.00
2018-11-06T14:44:47.513Z,61.10
2018-11-06T14:47:15.942Z,61.00
2018-11-06T14:49:45.311Z,60.90
2018-11-06T14:52:13.179Z,60.90
2018-11-06T14:54:41.021Z,61.00
2018-11-06T14:57:08.892Z,61.00
2018-11-06T14:59:36.784Z,61.20
2018-11-06T15:02:04.620Z,61.10
2018-11-06T15:04:33.017Z,61.10
2018-11-06T15:07:00.842Z,61.00
2018-11-06T15:09:28.660Z,61.10
2018-11-06T15:11:56.611Z,61.10
2018-11-06T15:14:24.471Z,61.00
2018-11-06T15:16:52.309Z,61.10
2018-11-06T15:19:20.166Z,61.20
2018-11-06T15:21:47.997Z,61.50
2018-11-06T15:24:15.932Z,61.30
2018-11-06T15:26:44.352Z,61.30
2018-11-06T15:29:12.170Z,61.20
2018-11-06T15:31:39.991Z,61.10
2018-11-06T15:34:07.952Z,61.10
2018-11-06T15:36:35.784Z,61.20
2018-11-06T15:39:04.605Z,61.20
2018-11-06T15:41:32.526Z,61.40
2018-11-06T15:44:01.067Z,61.60
2018-11-06T15:46:29.789Z,61.50
2018-11-06T15:48:57.646Z,61.40
2018-11-06T15:51:25.523Z,61.40
2018-11-06T15:53:54.302Z,61.30
2018-11-06T15:56:22.174Z,61.40
2018-11-06T15:58:50.066Z,61.30
2018-11-06T16:01:17.891Z,61.40
2018-11-06T16:03:45.709Z,61.60
2018-11-06T16:06:14.056Z,61.50
2018-11-06T16:08:41.876Z,61.30
2018-11-06T16:11:09.713Z,61.40
2018-11-06T16:13:38.675Z,61.40
2018-11-06T16:16:06.568Z,61.30
2018-11-06T16:18:34.377Z,61.50
2018-11-06T16:21:02.297Z,61.30
2018-11-06T16:23:30.171Z,61.20
2018-11-06T16:25:58.159Z,61.10
2018-11-06T16:28:25.991Z,61.00
2018-11-06T16:30:53.811Z,60.90
2018-11-06T16:33:21.626Z,60.80
2018-11-06T16:35:49.489Z,60.90
2018-11-06T16:38:18.333Z,60.90
2018-11-06T16:40:47.176Z,61.00
2018-11-06T16:43:15.685Z,61.10
2018-11-06T16:45:45.307Z,61.10
2018-11-06T16:48:13.929Z,61.00
2018-11-06T16:50:41.766Z,61.00
2018-11-06T16:53:09.593Z,61.20
2018-11-06T16:55:37.528Z,61.10
2018-11-06T16:58:05.415Z,61.10
2018-11-06T17:00:33.292Z,61.10
2018-11-06T17:03:01.119Z,61.00
2018-11-06T17:05:29.940Z,61.10
2018-11-06T17:07:57.762Z,61.60
2018-11-06T17:10:25.579Z,61.10
2018-11-06T17:12:53.430Z,61.00
2018-11-06T17:15:22.373Z,61.20
2018-11-06T17:17:52.356Z,61.10
2018-11-06T17:20:20.659Z,61.10
2018-11-06T17:22:48.488Z,61.20
2018-11-06T17:25:17.812Z,61.50
2018-11-06T17:27:46.615Z,61.30
2018-11-06T17:30:16.759Z,61.20
2018-11-06T17:32:45.521Z,61.30
2018-11-06T17:35:14.635Z,61.10
2018-11-06T17:37:42.740Z,61.10
2018-11-06T17:40:13.202Z,61.20
2018-11-06T17:42:41.500Z,61.20
2018-11-06T17:45:12.117Z,61.20
2018-11-06T17:47:40.691Z,61.20
2018-11-06T17:50:09.630Z,61.30
2018-11-06T17:52:38.343Z,61.40
2018-11-06T17:55:06.467Z,62.00
2018-11-06T17:57:34.554Z,61.30
2018-11-06T18:00:02.429Z,61.30
2018-11-06T18:02:31.321Z,61.30
2018-11-06T18:05:00.352Z,61.20
2018-11-06T18:07:29.321Z,61.30
2018-11-06T18:09:57.159Z,61.30
2018-11-06T18:12:26.277Z,61.30
2018-11-06T18:14:55.014Z,61.30
2018-11-06T18:17:23.948Z,61.50
2018-11-06T18:19:52.677Z,61.40
2018-11-06T18:22:21.518Z,61.30
2018-11-06T18:24:50.465Z,61.30
2018-11-06T18:27:19.329Z,61.40
2018-11-06T18:29:47.361Z,61.30
2018-11-06T18:32:16.298Z,61.10
2018-11-06T18:34:44.526Z,61.00
2018-11-06T18:37:13.240Z,61.00
2018-11-06T18:39:41.935Z,60.90
2018-11-06T18:42:09.802Z,60.70
2018-11-06T18:44:38.517Z,60.70
2018-11-06T18:47:06.354Z,60.70
2018-11-06T18:49:35.096Z,60.70
2018-11-06T18:52:03.981Z,60.80
2018-11-06T18:54:31.831Z,60.70
2018-11-06T18:57:00.641Z,60.80
2018-11-06T18:59:29.350Z,60.80
2018-11-06T19:01:58.100Z,60.70
2018-11-06T19:04:25.938Z,60.90
2018-11-06T19:06:54.736Z,60.90
2018-11-06T19:09:23.645Z,60.80
2018-11-06T19:11:51.470Z,60.90
2018-11-06T19:14:20.191Z,60.90
2018-11-06T19:16:48.157Z,60.80
2018-11-06T19:19:15.959Z,61.00
2018-11-06T19:21:45.414Z,61.10
2018-11-06T19:24:15.417Z,61.20
2018-11-06T19:26:44.460Z,61.10
2018-11-06T19:29:14.082Z,61.00
2018-11-06T19:31:42.827Z,60.90
2018-11-06T19:34:11.591Z,60.80
2018-11-06T19:36:40.300Z,60.90
2018-11-06T19:39:09.908Z,61.10
2018-11-06T19:41:38.017Z,60.90
2018-11-06T19:44:07.225Z,60.80
2018-11-06T19:46:36.137Z,60.80
2018-11-06T19:49:04.903Z,60.90
2018-11-06T19:51:33.088Z,60.80
2018-11-06T19:54:02.041Z,61.00
2018-11-06T19:56:30.952Z,61.20
2018-11-06T19:58:59.676Z,61.10
2018-11-06T20:01:27.899Z,61.00
2018-11-06T20:03:55.739Z,61.00
2018-11-06T20:06:23.571Z,61.00
2018-11-06T20:08:52.319Z,60.90
2018-11-06T20:11:21.081Z,61.00
2018-11-06T20:13:49.978Z,61.20
2018-11-06T20:16:18.808Z,61.10
2018-11-06T20:18:47.511Z,61.10
2018-11-06T20:21:17.100Z,61.10
2018-11-06T20:23:46.024Z,61.20
2018-11-06T20:26:14.834Z,61.30
2018-11-06T20:28:42.672Z,61.40
2018-11-06T20:31:10.483Z,61.30
2018-11-06T20:33:38.488Z,61.10
2018-11-06T20:36:07.070Z,61.20
2018-11-06T20:38:35.895Z,61.30
2018-11-06T20:41:03.711Z,61.10
2018-11-06T20:43:31.603Z,61.10
2018-11-06T20:45:59.407Z,61.40
2018-11-06T20:48:27.310Z,61.20
2018-11-06T20:50:55.148Z,61.10
2018-11-06T20:53:23.141Z,60.90
2018-11-06T20:55:51.227Z,60.90
2018-11-06T20:58:19.088Z,60.80
2018-11-06T21:00:56.201Z,60.70
2018-11-06T21:03:24.600Z,61.50
2018-11-06T21:05:52.496Z,60.90
2018-11-06T21:08:20.255Z,60.90
2018-11-06T21:10:49.093Z,60.80
2018-11-06T21:13:17.054Z,60.60
2018-11-06T21:15:45.572Z,60.50
2018-11-06T21:18:14.196Z,60.50
2018-11-06T21:20:43.556Z,60.60
2018-11-06T21:23:11.352Z,60.70
2018-11-06T21:25:40.014Z,60.80
2018-11-06T21:28:08.691Z,60.80
2018-11-06T21:30:36.461Z,60.70
2018-11-06T21:33:04.708Z,60.60
2018-11-06T21:35:32.520Z,60.70
2018-11-06T21:38:00.362Z,60.70
2018-11-06T21:40:28.201Z,60.90
2018-11-06T21:42:56.000Z,61.00
2018-11-06T21:45:23.856Z,61.70
2018-11-06T21:47:51.881Z,61.60
2018-11-06T21:50:20.211Z,60.90
2018-11-06T21:52:48.033Z,61.00
2018-11-06T21:55:17.185Z,61.00
2018-11-06T21:57:45.823Z,61.00
2018-11-06T22:00:17.871Z,61.20
2018-11-06T22:02:46.120Z,61.20
2018-11-06T22:05:16.862Z,61.10
2018-11-06T22:07:45.518Z,60.90
2018-11-06T22:10:14.799Z,61.00
2018-11-06T22:12:44.202Z,60.90
2018-11-06T22:15:13.336Z,61.00
2018-11-06T22:17:41.424Z,60.90
2018-11-06T22:20:10.666Z,61.10
2018-11-06T22:22:38.778Z,61.20
2018-11-06T22:25:06.688Z,61.20
2018-11-06T22:27:34.679Z,61.10
2018-11-06T22:30:02.483Z,61.10
2018-11-06T22:32:30.310Z,61.10
2018-11-06T22:34:58.211Z,61.10
2018-11-06T22:37:26.110Z,61.00
2018-11-06T22:39:54.390Z,61.00
2018-11-06T22:42:22.200Z,61.00
2018-11-06T22:44:50.986Z,61.10
2018-11-06T22:47:18.804Z,60.90
2018-11-06T22:49:46.633Z,60.70
2018-11-06T22:52:15.184Z,60.80
2018-11-06T22:54:43.507Z,60.80
2018-11-06T22:57:11.323Z,60.70
2018-11-06T22:59:39.155Z,60.80
2018-11-06T23:02:06.978Z,60.80
2018-11-06T23:04:34.799Z,60.70
2018-11-06T23:07:03.597Z,60.90
2018-11-06T23:09:31.448Z,60.90
2018-11-06T23:12:00.181Z,60.90
2018-11-06T23:14:28.037Z,60.70
2018-11-06T23:16:55.895Z,60.70
2018-11-06T23:19:23.713Z,60.50
2018-11-06T23:21:52.575Z,60.50
2018-11-06T23:24:20.528Z,60.50
2018-11-06T23:26:48.371Z,60.60
2018-11-06T23:29:16.242Z,60.70
2018-11-06T23:31:45.654Z,60.70
2018-11-06T23:34:15.367Z,60.70
2018-11-06T23:36:43.696Z,60.70
2018-11-06T23:39:12.534Z,60.80
2018-11-06T23:41:41.314Z,60.90
2018-11-06T23:44:10.162Z,60.90
2018-11-06T23:46:38.874Z,60.70
2018-11-06T23:49:07.592Z,60.80
2018-11-06T23:51:36.298Z,61.00
2018-11-06T23:54:05.140Z,60.90
2018-11-06T23:56:34.024Z,61.00
2018-11-06T23:59:02.869Z,61.10
